createdAt,value
2019-02-20T00:00:17.956Z,80.32
2019-02-20T00:01:17.959Z,80.42
2019-02-20T00:02:17.934Z,79.80
2019-02-20T00:03:17.962Z,80.00
2019-02-20T00:04:17.923Z,79.69
2019-02-20T00:05:17.974Z,80.11
2019-02-20T00:06:17.946Z,80.21
2019-02-20T00:07:17.893Z,79.90
2019-02-20T00:08:17.882Z,80.42
2019-02-20T00:09:17.859Z,79.90
2019-02-20T00:10:17.897Z,80.00
2019-02-20T00:11:17.847Z,80.42
2019-02-20T00:12:17.835Z,79.80
2019-02-20T00:13:17.825Z,79.80
2019-02-20T00:14:17.807Z,80.11
2019-02-20T00:15:17.859Z,80.11
2019-02-20T00:16:17.800Z,80.11
2019-02-20T00:17:17.792Z,79.59
2019-02-20T00:18:17.764Z,79.69
2019-02-20T00:19:17.746Z,79.80
2019-02-20T00:20:17.792Z,79.69
2019-02-20T00:21:17.746Z,80.00
2019-02-20T00:22:17.713Z,80.42
2019-02-20T00:23:17.745Z,79.80
2019-02-20T00:24:17.701Z,79.83
2019-02-20T00:25:17.681Z,79.69
2019-02-20T00:26:17.721Z,79.80
2019-02-20T00:27:17.659Z,79.28
2019-02-20T00:28:17.658Z,79.28
2019-02-20T00:29:17.637Z,79.08
2019-02-20T00:30:17.649Z,79.38
2019-02-20T00:31:17.671Z,79.14
2019-02-20T00:32:17.607Z,78.97
2019-02-20T00:33:17.634Z,79.25
2019-02-20T00:34:17.600Z,79.35
2019-02-20T00:35:17.575Z,78.87
2019-02-20T00:36:17.597Z,78.97
2019-02-20T00:37:17.595Z,78.63
2019-02-20T00:38:17.541Z,79.14
2019-02-20T00:39:17.530Z,79.04
2019-02-20T00:40:17.556Z,78.56
2019-02-20T00:41:17.518Z,78.63
2019-02-20T00:42:17.542Z,78.97
2019-02-20T00:43:17.539Z,78.97
2019-02-20T00:44:17.581Z,78.83
2019-02-20T00:45:17.465Z,78.87
2019-02-20T00:46:17.453Z,78.63
2019-02-20T00:47:17.453Z,78.52
2019-02-20T00:48:17.472Z,78.31
2019-02-20T00:49:17.426Z,78.11
2019-02-20T00:50:17.403Z,78.56
2019-02-20T00:51:17.396Z,78.31
2019-02-20T00:52:17.394Z,78.52
2019-02-20T00:53:17.385Z,78.42
2019-02-20T00:54:17.433Z,77.91
2019-02-20T00:55:17.356Z,78.31
2019-02-20T00:56:17.359Z,78.31
2019-02-20T00:57:17.328Z,78.21
2019-02-20T00:58:17.325Z,78.31
2019-02-20T00:59:17.667Z,77.91
2019-02-20T01:00:17.331Z,78.21
2019-02-20T01:01:17.282Z,78.01
2019-02-20T01:02:17.275Z,78.31
2019-02-20T01:03:17.266Z,78.31
2019-02-20T01:04:17.338Z,78.21
2019-02-20T01:05:17.235Z,78.42
2019-02-20T01:06:17.237Z,78.52
2019-02-20T01:07:17.248Z,78.11
2019-02-20T01:08:17.244Z,78.11
2019-02-20T01:09:17.200Z,78.21
2019-02-20T01:10:17.244Z,78.63
2019-02-20T01:11:17.239Z,78.42
2019-02-20T01:12:17.215Z,78.63
2019-02-20T01:13:17.155Z,78.31
2019-02-20T01:14:17.145Z,78.31
2019-02-20T01:15:17.188Z,78.52
2019-02-20T01:16:17.118Z,78.73
2019-02-20T01:17:17.150Z,78.73
2019-02-20T01:18:17.097Z,78.08
2019-02-20T01:19:17.106Z,78.73
2019-02-20T01:20:17.089Z,78.63
2019-02-20T01:21:17.112Z,78.11
2019-02-20T01:22:17.049Z,78.83
2019-02-20T01:23:17.044Z,78.73
2019-02-20T01:24:17.030Z,78.01
2019-02-20T01:25:17.022Z,78.01
2019-02-20T01:26:17.058Z,78.73
2019-02-20T01:27:17.000Z,78.73
2019-02-20T01:28:16.983Z,78.83
2019-02-20T01:29:16.968Z,78.80
2019-02-20T01:30:16.971Z,78.73
2019-02-20T01:31:16.947Z,78.52
2019-02-20T01:32:16.979Z,78.83
2019-02-20T01:33:16.961Z,78.94
2019-02-20T01:34:16.914Z,78.83
2019-02-20T01:35:16.910Z,79.04
2019-02-20T01:36:16.940Z,78.83
2019-02-20T01:37:16.885Z,78.52
2019-02-20T01:38:16.878Z,78.52
2019-02-20T01:39:16.872Z,79.04
2019-02-20T01:40:16.872Z,78.73
2019-02-20T01:41:16.848Z,78.94
2019-02-20T01:42:16.876Z,78.94
2019-02-20T01:43:16.841Z,79.04
2019-02-20T01:44:16.812Z,78.83
2019-02-20T01:45:16.802Z,78.83
2019-02-20T01:46:16.800Z,78.11
2019-02-20T01:47:16.815Z,78.73
2019-02-20T01:48:16.774Z,78.73
2019-02-20T01:49:16.835Z,78.52
2019-02-20T01:50:16.749Z,78.01
2019-02-20T01:51:16.745Z,78.52
2019-02-20T01:52:16.768Z,78.11
2019-02-20T01:53:16.709Z,78.21
2019-02-20T01:54:16.700Z,78.11
2019-02-20T01:55:16.691Z,78.01
2019-02-20T01:56:16.716Z,78.21
2019-02-20T01:57:16.663Z,78.21
2019-02-20T01:58:16.655Z,78.31
2019-02-20T01:59:16.699Z,78.01
2019-02-20T02:00:16.635Z,78.11
2019-02-20T02:01:16.624Z,78.21
2019-02-20T02:02:16.647Z,78.21
2019-02-20T02:03:16.674Z,78.52
2019-02-20T02:04:16.625Z,78.11
2019-02-20T02:05:16.579Z,78.11
2019-02-20T02:06:16.589Z,77.49
2019-02-20T02:07:16.553Z,77.80
2019-02-20T02:08:16.588Z,77.59
2019-02-20T02:09:16.534Z,77.91
2019-02-20T02:10:16.521Z,77.70
2019-02-20T02:11:16.562Z,77.49
2019-02-20T02:12:16.504Z,77.73
2019-02-20T02:13:16.491Z,77.18
2019-02-20T02:14:16.521Z,77.49
2019-02-20T02:15:20.416Z,77.59
2019-02-20T02:16:16.456Z,77.80
2019-02-20T02:17:16.439Z,77.80
2019-02-20T02:18:16.436Z,77.39
2019-02-20T02:19:16.423Z,77.28
2019-02-20T02:20:16.464Z,77.18
2019-02-20T02:21:16.398Z,76.98
2019-02-20T02:22:16.382Z,76.77
2019-02-20T02:23:19.900Z,77.18
2019-02-20T02:24:16.363Z,77.08
2019-02-20T02:25:16.359Z,77.08
2019-02-20T02:26:16.377Z,76.98
2019-02-20T02:27:16.333Z,76.77
2019-02-20T02:28:16.318Z,76.98
2019-02-20T02:29:16.310Z,76.67
2019-02-20T02:30:16.341Z,76.67
2019-02-20T02:31:16.330Z,76.46
2019-02-20T02:32:16.283Z,76.67
2019-02-20T02:33:16.261Z,76.15
2019-02-20T02:34:16.250Z,76.15
2019-02-20T02:35:16.251Z,75.95
2019-02-20T02:36:16.270Z,76.35
2019-02-20T02:37:16.220Z,75.95
2019-02-20T02:38:16.210Z,76.46
2019-02-20T02:39:16.205Z,75.95
2019-02-20T02:40:16.191Z,75.95
2019-02-20T02:41:16.237Z,76.04
2019-02-20T02:42:16.179Z,76.04
2019-02-20T02:43:16.165Z,75.84
2019-02-20T02:44:16.159Z,75.95
2019-02-20T02:45:16.191Z,76.15
2019-02-20T02:46:16.158Z,76.15
2019-02-20T02:47:16.113Z,76.15
2019-02-20T02:48:16.103Z,75.95
2019-02-20T02:49:16.095Z,76.15
2019-02-20T02:50:16.081Z,76.04
2019-02-20T02:51:16.087Z,76.15
2019-02-20T02:52:16.123Z,75.84
2019-02-20T02:53:16.076Z,76.04
2019-02-20T02:54:16.035Z,75.84
2019-02-20T02:55:16.053Z,75.84
2019-02-20T02:56:16.008Z,75.95
2019-02-20T02:57:16.003Z,75.84
2019-02-20T02:58:16.037Z,75.74
2019-02-20T02:59:15.989Z,76.04
2019-02-20T03:00:15.967Z,75.95
2019-02-20T03:01:15.956Z,75.84
2019-02-20T03:02:15.996Z,75.74
2019-02-20T03:03:15.934Z,76.15
2019-02-20T03:04:15.937Z,75.95
2019-02-20T03:05:15.917Z,75.84
2019-02-20T03:06:15.897Z,75.77
2019-02-20T03:07:15.956Z,75.98
2019-02-20T03:08:15.925Z,76.25
2019-02-20T03:09:15.861Z,75.74
2019-02-20T03:10:15.858Z,75.95
2019-02-20T03:11:15.872Z,75.74
2019-02-20T03:12:15.836Z,75.95
2019-02-20T03:13:15.822Z,75.84
2019-02-20T03:14:15.860Z,75.87
2019-02-20T03:15:15.799Z,75.77
2019-02-20T03:16:15.787Z,76.08
2019-02-20T03:17:15.775Z,75.67
2019-02-20T03:18:15.786Z,75.77
2019-02-20T03:19:15.811Z,75.95
2019-02-20T03:20:15.747Z,75.98
2019-02-20T03:21:15.741Z,75.98
2019-02-20T03:22:15.746Z,76.08
2019-02-20T03:23:15.717Z,75.87
2019-02-20T03:24:15.699Z,76.18
2019-02-20T03:25:15.740Z,75.98
2019-02-20T03:26:15.679Z,76.18
2019-02-20T03:27:15.671Z,76.18
2019-02-20T03:28:15.665Z,76.08
2019-02-20T03:29:15.667Z,76.18
2019-02-20T03:30:15.699Z,76.08
2019-02-20T03:31:15.631Z,76.39
2019-02-20T03:32:15.623Z,76.50
2019-02-20T03:33:15.609Z,76.18
2019-02-20T03:34:15.610Z,76.50
2019-02-20T03:35:15.590Z,76.60
2019-02-20T03:36:15.614Z,76.29
2019-02-20T03:37:15.558Z,76.08
2019-02-20T03:38:15.594Z,76.50
2019-02-20T03:39:15.546Z,76.08
2019-02-20T03:40:15.526Z,76.50
2019-02-20T03:41:15.555Z,76.39
2019-02-20T03:42:15.565Z,76.50
2019-02-20T03:43:15.497Z,76.08
2019-02-20T03:44:15.478Z,76.60
2019-02-20T03:45:15.478Z,76.18
2019-02-20T03:46:15.452Z,76.81
2019-02-20T03:47:15.494Z,76.29
2019-02-20T03:48:15.434Z,76.39
2019-02-20T03:49:15.437Z,76.29
2019-02-20T03:50:15.417Z,76.53
2019-02-20T03:51:15.461Z,76.50
2019-02-20T03:52:15.390Z,76.29
2019-02-20T03:53:15.383Z,76.39
2019-02-20T03:54:15.374Z,76.39
2019-02-20T03:55:15.379Z,76.39
2019-02-20T03:56:15.406Z,77.11
2019-02-20T03:57:15.344Z,76.90
2019-02-20T03:58:15.341Z,77.15
2019-02-20T03:59:15.316Z,76.90
2019-02-20T04:00:15.307Z,77.01
2019-02-20T04:01:15.346Z,76.39
2019-02-20T04:02:15.322Z,76.90
2019-02-20T04:03:15.277Z,76.50
2019-02-20T04:04:15.367Z,76.60
2019-02-20T04:05:15.252Z,76.70
2019-02-20T04:06:15.240Z,76.18
2019-02-20T04:07:15.268Z,76.39
2019-02-20T04:08:15.219Z,76.50
2019-02-20T04:09:15.249Z,76.81
2019-02-20T04:10:15.269Z,76.18
2019-02-20T04:11:15.180Z,76.50
2019-02-20T04:12:15.229Z,76.29
2019-02-20T04:13:15.157Z,76.70
2019-02-20T04:14:15.171Z,76.35
2019-02-20T04:15:15.141Z,76.50
2019-02-20T04:16:15.129Z,76.39
2019-02-20T04:17:15.128Z,76.77
2019-02-20T04:18:15.151Z,76.35
2019-02-20T04:19:15.098Z,76.46
2019-02-20T04:20:15.093Z,76.50
2019-02-20T04:21:15.098Z,76.18
2019-02-20T04:22:15.121Z,76.50
2019-02-20T04:23:15.094Z,76.46
2019-02-20T04:24:15.044Z,76.35
2019-02-20T04:25:15.102Z,76.50
2019-02-20T04:26:15.023Z,76.25
2019-02-20T04:27:15.012Z,76.67
2019-02-20T04:28:15.000Z,76.46
2019-02-20T04:29:14.990Z,76.29
2019-02-20T04:30:14.977Z,76.39
2019-02-20T04:31:15.002Z,76.46
2019-02-20T04:32:14.982Z,76.39
2019-02-20T04:33:14.982Z,76.46
2019-02-20T04:34:15.016Z,76.25
2019-02-20T04:35:14.921Z,76.35
2019-02-20T04:36:14.973Z,76.46
2019-02-20T04:37:14.923Z,76.50
2019-02-20T04:38:14.889Z,76.35
2019-02-20T04:39:14.927Z,76.04
2019-02-20T04:40:14.860Z,76.15
2019-02-20T04:41:14.851Z,76.15
2019-02-20T04:42:14.846Z,76.25
2019-02-20T04:43:14.847Z,76.15
2019-02-20T04:44:14.822Z,75.95
2019-02-20T04:45:14.877Z,75.95
2019-02-20T04:46:14.797Z,75.95
2019-02-20T04:47:14.783Z,76.04
2019-02-20T04:48:14.790Z,76.25
2019-02-20T04:49:14.768Z,76.25
2019-02-20T04:50:14.756Z,75.84
2019-02-20T04:51:14.779Z,76.04
2019-02-20T04:52:14.738Z,75.84
2019-02-20T04:53:14.749Z,76.04
2019-02-20T04:54:14.752Z,76.15
2019-02-20T04:55:14.755Z,76.04
2019-02-20T04:56:14.685Z,75.74
2019-02-20T04:57:14.682Z,76.04
2019-02-20T04:58:14.666Z,76.04
2019-02-20T04:59:14.718Z,75.91
2019-02-20T05:00:14.748Z,75.81
2019-02-20T05:01:14.630Z,75.81
2019-02-20T05:02:14.621Z,75.91
2019-02-20T05:03:14.618Z,76.32
2019-02-20T05:04:14.673Z,75.95
2019-02-20T05:05:14.583Z,76.01
2019-02-20T05:06:14.571Z,75.91
2019-02-20T05:07:14.614Z,75.91
2019-02-20T05:08:14.552Z,76.12
2019-02-20T05:09:14.545Z,75.29
2019-02-20T05:10:14.532Z,75.09
2019-02-20T05:11:14.524Z,75.18
2019-02-20T05:12:14.515Z,74.88
2019-02-20T05:13:14.556Z,74.98
2019-02-20T05:14:14.482Z,74.98
2019-02-20T05:15:14.480Z,74.67
2019-02-20T05:16:14.461Z,74.67
2019-02-20T05:17:14.448Z,74.88
2019-02-20T05:18:14.441Z,74.67
2019-02-20T05:19:14.471Z,74.77
2019-02-20T05:20:14.481Z,74.46
2019-02-20T05:21:14.452Z,74.46
2019-02-20T05:22:14.393Z,74.57
2019-02-20T05:23:14.414Z,74.26
2019-02-20T05:24:24.207Z,74.88
2019-02-20T05:25:15.401Z,74.46
2019-02-20T05:26:14.372Z,74.15
2019-02-20T05:27:14.383Z,74.36
2019-02-20T05:28:14.333Z,74.26
2019-02-20T05:29:14.317Z,74.67
2019-02-20T05:30:14.310Z,74.36
2019-02-20T05:31:16.418Z,74.26
2019-02-20T05:32:14.329Z,74.67
2019-02-20T05:33:14.284Z,74.57
2019-02-20T05:34:14.261Z,74.26
2019-02-20T05:35:14.251Z,74.46
2019-02-20T05:36:14.257Z,74.46
2019-02-20T05:37:14.289Z,74.88
2019-02-20T05:38:14.224Z,73.95
2019-02-20T05:39:14.210Z,74.36
2019-02-20T05:40:14.200Z,74.22
2019-02-20T05:41:14.184Z,74.15
2019-02-20T05:42:14.177Z,74.12
2019-02-20T05:43:14.236Z,74.26
2019-02-20T05:44:14.157Z,74.26
2019-02-20T05:45:14.142Z,74.36
2019-02-20T05:46:14.188Z,74.22
2019-02-20T05:47:14.115Z,74.15
2019-02-20T05:48:14.106Z,74.36
2019-02-20T05:49:14.163Z,74.02
2019-02-20T05:50:14.089Z,74.15
2019-02-20T05:51:14.080Z,73.95
2019-02-20T05:52:14.063Z,74.22
2019-02-20T05:53:14.109Z,74.02
2019-02-20T05:54:14.102Z,73.95
2019-02-20T05:55:14.067Z,73.81
2019-02-20T05:56:14.068Z,73.91
2019-02-20T05:57:14.003Z,74.15
2019-02-20T05:58:13.994Z,73.40
2019-02-20T05:59:13.984Z,73.85
2019-02-20T06:00:13.986Z,73.91
2019-02-20T06:01:14.006Z,73.54
2019-02-20T06:02:13.949Z,73.43
2019-02-20T06:03:14.576Z,73.33
2019-02-20T06:04:13.932Z,72.99
2019-02-20T06:05:13.929Z,73.60
2019-02-20T06:06:13.923Z,73.54
2019-02-20T06:07:13.949Z,73.12
2019-02-20T06:08:13.906Z,73.71
2019-02-20T06:09:14.084Z,73.30
2019-02-20T06:10:13.858Z,73.09
2019-02-20T06:11:15.258Z,73.54
2019-02-20T06:12:13.844Z,73.60
2019-02-20T06:13:13.922Z,73.54
2019-02-20T06:14:13.818Z,73.22
2019-02-20T06:15:14.095Z,72.99
2019-02-20T06:16:13.791Z,73.54
2019-02-20T06:17:13.801Z,73.02
2019-02-20T06:18:13.786Z,73.71
2019-02-20T06:19:13.806Z,73.74
2019-02-20T06:20:13.814Z,72.92
2019-02-20T06:21:13.754Z,72.92
2019-02-20T06:22:13.794Z,72.99
2019-02-20T06:23:13.732Z,73.09
2019-02-20T06:24:13.712Z,73.30
2019-02-20T06:25:13.701Z,72.88
2019-02-20T06:26:13.725Z,73.19
2019-02-20T06:27:13.668Z,72.78
2019-02-20T06:28:13.683Z,72.67
2019-02-20T06:29:13.652Z,72.50
2019-02-20T06:30:13.691Z,72.88
2019-02-20T06:31:13.667Z,72.88
2019-02-20T06:32:13.620Z,72.47
2019-02-20T06:33:13.607Z,72.27
2019-02-20T06:34:13.603Z,72.67
2019-02-20T06:35:13.584Z,72.88
2019-02-20T06:36:13.613Z,72.16
2019-02-20T06:37:13.565Z,72.06
2019-02-20T06:38:13.552Z,72.06
2019-02-20T06:39:13.539Z,72.16
2019-02-20T06:40:13.531Z,72.06
2019-02-20T06:41:13.559Z,71.92
2019-02-20T06:42:13.512Z,72.27
2019-02-20T06:43:13.496Z,72.27
2019-02-20T06:44:13.517Z,71.75
2019-02-20T06:45:13.503Z,71.85
2019-02-20T06:46:13.510Z,71.92
2019-02-20T06:47:13.446Z,71.85
2019-02-20T06:48:13.480Z,71.61
2019-02-20T06:49:13.440Z,71.44
2019-02-20T06:50:13.413Z,71.61
2019-02-20T06:51:13.449Z,71.82
2019-02-20T06:52:13.410Z,71.75
2019-02-20T06:53:13.418Z,71.55
2019-02-20T06:54:13.406Z,71.44
2019-02-20T06:55:13.377Z,71.44
2019-02-20T06:56:13.359Z,71.55
2019-02-20T06:57:13.410Z,71.41
2019-02-20T06:58:13.340Z,71.20
2019-02-20T06:59:13.327Z,71.85
2019-02-20T07:00:13.312Z,71.55
2019-02-20T07:01:13.301Z,71.34
2019-02-20T07:02:13.338Z,71.41
2019-02-20T07:03:13.276Z,71.44
2019-02-20T07:04:13.267Z,71.23
2019-02-20T07:05:13.288Z,71.44
2019-02-20T07:06:13.266Z,71.30
2019-02-20T07:07:13.234Z,71.41
2019-02-20T07:08:13.308Z,71.51
2019-02-20T07:09:15.237Z,71.23
2019-02-20T07:10:13.202Z,71.13
2019-02-20T07:11:13.215Z,71.75
2019-02-20T07:12:13.180Z,71.13
2019-02-20T07:13:13.227Z,71.51
2019-02-20T07:14:13.162Z,71.82
2019-02-20T07:15:13.154Z,71.30
2019-02-20T07:16:13.140Z,70.72
2019-02-20T07:17:13.132Z,70.89
2019-02-20T07:18:13.118Z,70.79
2019-02-20T07:19:13.159Z,70.62
2019-02-20T07:20:13.090Z,70.92
2019-02-20T07:21:13.088Z,71.00
2019-02-20T07:22:13.076Z,70.79
2019-02-20T07:23:13.123Z,70.68
2019-02-20T07:24:13.102Z,71.10
2019-02-20T07:25:13.137Z,71.34
2019-02-20T07:26:13.035Z,70.58
2019-02-20T07:27:13.056Z,71.20
2019-02-20T07:28:13.026Z,70.89
2019-02-20T07:29:13.013Z,70.37
2019-02-20T07:30:13.033Z,70.37
2019-02-20T07:31:13.000Z,70.37
2019-02-20T07:32:13.030Z,70.79
2019-02-20T07:33:12.958Z,70.58
2019-02-20T07:34:12.974Z,70.28
2019-02-20T07:35:12.987Z,70.07
2019-02-20T07:36:12.926Z,70.48
2019-02-20T07:37:12.915Z,70.28
2019-02-20T07:38:12.907Z,70.17
2019-02-20T07:39:12.894Z,69.65
2019-02-20T07:40:12.886Z,69.96
2019-02-20T07:41:12.924Z,70.17
2019-02-20T07:42:12.864Z,70.37
2019-02-20T07:43:12.894Z,69.96
2019-02-20T07:44:12.844Z,70.07
2019-02-20T07:45:12.880Z,70.20
2019-02-20T07:46:12.858Z,69.76
2019-02-20T07:47:12.835Z,70.00
2019-02-20T07:48:12.802Z,70.00
2019-02-20T07:49:12.789Z,70.51
2019-02-20T07:50:12.777Z,70.51
2019-02-20T07:51:14.839Z,70.58
2019-02-20T07:52:12.754Z,70.41
2019-02-20T07:53:12.762Z,70.37
2019-02-20T07:54:12.749Z,70.28
2019-02-20T07:55:13.778Z,70.28
2019-02-20T07:56:12.782Z,70.17
2019-02-20T07:57:12.695Z,70.28
2019-02-20T07:58:12.688Z,70.28
2019-02-20T07:59:12.697Z,70.48
2019-02-20T08:00:12.669Z,70.37
2019-02-20T08:01:12.668Z,70.37
2019-02-20T08:02:12.682Z,69.62
2019-02-20T08:03:12.641Z,69.76
2019-02-20T08:04:12.684Z,69.76
2019-02-20T08:05:12.609Z,69.86
2019-02-20T08:06:12.620Z,70.07
2019-02-20T08:07:12.586Z,70.17
2019-02-20T08:08:12.596Z,69.76
2019-02-20T08:09:12.567Z,69.96
2019-02-20T08:10:12.561Z,70.17
2019-02-20T08:11:12.634Z,70.20
2019-02-20T08:12:12.536Z,70.20
2019-02-20T08:13:12.525Z,70.62
2019-02-20T08:14:12.530Z,70.62
2019-02-20T08:15:12.499Z,70.58
2019-02-20T08:16:12.525Z,70.58
2019-02-20T08:17:12.486Z,70.31
2019-02-20T08:18:12.476Z,70.20
2019-02-20T08:19:12.460Z,70.41
2019-02-20T08:20:12.473Z,70.72
2019-02-20T08:21:12.494Z,70.51
2019-02-20T08:22:12.420Z,70.41
2019-02-20T08:23:12.416Z,70.82
2019-02-20T08:24:12.410Z,70.86
2019-02-20T08:25:12.417Z,70.92
2019-02-20T08:26:12.377Z,71.03
2019-02-20T08:27:12.408Z,71.64
2019-02-20T08:28:12.356Z,71.23
2019-02-20T08:29:12.379Z,71.13
2019-02-20T08:30:12.344Z,71.23
2019-02-20T08:31:12.338Z,71.23
2019-02-20T08:32:12.345Z,71.34
2019-02-20T08:33:12.315Z,71.44
2019-02-20T08:34:12.297Z,71.95
2019-02-20T08:35:12.310Z,71.23
2019-02-20T08:36:12.323Z,71.55
2019-02-20T08:37:12.291Z,71.23
2019-02-20T08:38:12.247Z,71.23
2019-02-20T08:39:12.243Z,71.16
2019-02-20T08:40:12.273Z,71.13
2019-02-20T08:41:12.223Z,71.55
2019-02-20T08:42:12.206Z,71.34
2019-02-20T08:43:12.368Z,71.03
2019-02-20T08:44:12.182Z,71.64
2019-02-20T08:45:12.169Z,71.10
2019-02-20T08:46:12.157Z,70.89
2019-02-20T08:47:12.144Z,70.37
2019-02-20T08:48:12.134Z,70.28
2019-02-20T08:49:12.166Z,70.28
2019-02-20T08:50:12.117Z,69.86
2019-02-20T08:51:12.107Z,70.14
2019-02-20T08:52:12.088Z,70.07
2019-02-20T08:53:12.088Z,69.93
2019-02-20T08:54:12.070Z,69.62
2019-02-20T08:55:12.100Z,69.73
2019-02-20T08:56:12.057Z,69.93
2019-02-20T08:57:12.033Z,69.38
2019-02-20T08:58:12.064Z,69.07
2019-02-20T08:59:12.027Z,69.07
2019-02-20T09:00:12.072Z,68.77
2019-02-20T09:01:12.014Z,68.77
2019-02-20T09:02:11.979Z,68.87
2019-02-20T09:03:11.973Z,68.87
2019-02-20T09:04:11.958Z,68.66
2019-02-20T09:05:11.956Z,69.07
2019-02-20T09:06:11.983Z,68.98
2019-02-20T09:07:11.929Z,68.74
2019-02-20T09:08:11.916Z,68.66
2019-02-20T09:09:11.898Z,68.43
2019-02-20T09:10:11.897Z,68.53
2019-02-20T09:11:11.906Z,68.43
2019-02-20T09:12:11.875Z,68.43
2019-02-20T09:13:11.860Z,68.74
2019-02-20T09:14:11.846Z,68.32
2019-02-20T09:15:11.830Z,68.43
2019-02-20T09:16:11.887Z,68.74
2019-02-20T09:17:11.847Z,68.12
2019-02-20T09:18:11.802Z,68.32
2019-02-20T09:19:11.794Z,67.68
2019-02-20T09:20:11.791Z,67.88
2019-02-20T09:21:11.766Z,67.78
2019-02-20T09:22:11.791Z,67.98
2019-02-20T09:23:11.781Z,67.78
2019-02-20T09:24:11.750Z,67.36
2019-02-20T09:25:19.629Z,67.78
2019-02-20T09:26:12.713Z,67.57
2019-02-20T09:27:11.731Z,66.96
2019-02-20T09:28:11.706Z,67.26
2019-02-20T09:29:11.800Z,67.85
2019-02-20T09:30:11.667Z,67.23
2019-02-20T09:31:11.680Z,67.16
2019-02-20T09:32:11.689Z,67.36
2019-02-20T09:33:11.675Z,67.16
2019-02-20T09:34:11.636Z,67.47
2019-02-20T09:35:11.614Z,67.78
2019-02-20T09:36:11.614Z,67.78
2019-02-20T09:37:11.593Z,67.68
2019-02-20T09:38:11.738Z,68.22
2019-02-20T09:39:11.596Z,68.53
2019-02-20T09:40:11.581Z,67.78
2019-02-20T09:41:11.564Z,67.98
2019-02-20T09:42:11.559Z,67.78
2019-02-20T09:43:11.551Z,67.88
2019-02-20T09:44:11.509Z,68.29
2019-02-20T09:45:11.511Z,68.40
2019-02-20T09:46:11.514Z,68.40
2019-02-20T09:47:11.482Z,68.29
2019-02-20T09:48:11.494Z,68.08
2019-02-20T09:49:11.457Z,68.37
2019-02-20T09:50:11.452Z,67.68
2019-02-20T09:51:11.445Z,67.78
2019-02-20T09:52:11.427Z,67.75
2019-02-20T09:53:11.437Z,68.08
2019-02-20T09:54:11.408Z,68.29
2019-02-20T09:55:11.414Z,67.85
2019-02-20T09:56:11.427Z,67.16
2019-02-20T09:57:11.374Z,67.33
2019-02-20T09:58:11.476Z,67.44
2019-02-20T09:59:11.425Z,67.23
2019-02-20T10:00:11.333Z,67.30
2019-02-20T10:01:11.334Z,66.72
2019-02-20T10:02:11.329Z,66.79
2019-02-20T10:03:11.329Z,66.28
2019-02-20T10:04:11.322Z,66.89
2019-02-20T10:05:11.302Z,67.10
2019-02-20T10:06:12.973Z,66.04
2019-02-20T10:07:11.263Z,66.25
2019-02-20T10:08:11.252Z,66.28
2019-02-20T10:09:11.285Z,66.28
2019-02-20T10:10:11.250Z,66.48
2019-02-20T10:11:11.218Z,66.45
2019-02-20T10:12:11.213Z,66.07
2019-02-20T10:13:11.603Z,66.28
2019-02-20T10:14:11.239Z,66.58
2019-02-20T10:15:11.186Z,66.25
2019-02-20T10:16:11.164Z,66.76
2019-02-20T10:17:11.161Z,65.94
2019-02-20T10:18:12.282Z,65.73
2019-02-20T10:19:11.157Z,65.63
2019-02-20T10:20:11.154Z,65.73
2019-02-20T10:21:11.109Z,65.77
2019-02-20T10:22:11.102Z,66.28
2019-02-20T10:23:11.130Z,66.58
2019-02-20T10:24:11.074Z,66.17
2019-02-20T10:25:11.149Z,66.48
2019-02-20T10:26:11.060Z,66.07
2019-02-20T10:27:11.045Z,65.83
2019-02-20T10:28:11.032Z,65.83
2019-02-20T10:29:11.020Z,65.60
2019-02-20T10:30:11.023Z,65.09
2019-02-20T10:31:11.030Z,64.44
2019-02-20T10:32:10.996Z,64.44
2019-02-20T10:33:10.976Z,64.54
2019-02-20T10:34:11.294Z,64.57
2019-02-20T10:35:10.967Z,64.88
2019-02-20T10:36:11.006Z,64.88
2019-02-20T10:37:10.941Z,64.67
2019-02-20T10:38:10.923Z,64.78
2019-02-20T10:39:10.909Z,64.47
2019-02-20T10:40:10.962Z,64.47
2019-02-20T10:41:10.899Z,65.32
2019-02-20T10:42:10.911Z,65.73
2019-02-20T10:43:10.862Z,65.70
2019-02-20T10:44:10.861Z,65.60
2019-02-20T10:45:10.848Z,65.09
2019-02-20T10:46:10.833Z,65.16
2019-02-20T10:47:10.864Z,64.95
2019-02-20T10:48:10.805Z,64.75
2019-02-20T10:49:10.800Z,64.54
2019-02-20T10:50:10.821Z,64.85
2019-02-20T10:51:10.797Z,64.54
2019-02-20T10:52:10.814Z,64.64
2019-02-20T10:53:10.754Z,64.34
2019-02-20T10:54:10.753Z,64.44
2019-02-20T10:55:10.732Z,64.64
2019-02-20T10:56:10.738Z,64.34
2019-02-20T10:57:10.711Z,64.20
2019-02-20T10:58:10.727Z,64.00
2019-02-20T10:59:10.709Z,64.51
2019-02-20T11:00:10.702Z,63.07
2019-02-20T11:01:10.664Z,63.39
2019-02-20T11:02:10.662Z,63.28
2019-02-20T11:03:10.676Z,63.59
2019-02-20T11:04:10.630Z,64.41
2019-02-20T11:05:10.616Z,63.25
2019-02-20T11:06:10.604Z,63.69
2019-02-20T11:07:10.608Z,64.31
2019-02-20T11:08:10.627Z,63.79
2019-02-20T11:09:10.573Z,63.59
2019-02-20T11:10:10.577Z,63.90
2019-02-20T11:11:10.559Z,63.46
2019-02-20T11:12:10.549Z,63.39
2019-02-20T11:13:10.658Z,63.39
2019-02-20T11:14:10.551Z,63.28
2019-02-20T11:15:10.516Z,63.39
2019-02-20T11:16:10.512Z,63.39
2019-02-20T11:17:10.511Z,63.07
2019-02-20T11:18:10.513Z,63.79
2019-02-20T11:19:10.463Z,63.39
2019-02-20T11:20:10.448Z,63.69
2019-02-20T11:21:10.513Z,63.46
2019-02-20T11:22:10.463Z,63.39
2019-02-20T11:23:10.476Z,63.25
2019-02-20T11:24:10.406Z,63.05
2019-02-20T11:25:10.399Z,63.22
2019-02-20T11:26:17.795Z,63.02
2019-02-20T11:27:11.375Z,62.61
2019-02-20T11:28:10.371Z,62.81
2019-02-20T11:29:10.378Z,62.40
2019-02-20T11:30:10.361Z,62.71
2019-02-20T11:31:10.372Z,62.10
2019-02-20T11:32:10.319Z,62.81
2019-02-20T11:33:10.308Z,63.22
2019-02-20T11:34:10.392Z,62.40
2019-02-20T11:35:10.303Z,61.99
2019-02-20T11:36:10.277Z,61.89
2019-02-20T11:37:10.267Z,62.10
2019-02-20T11:38:10.258Z,61.89
2019-02-20T11:39:11.697Z,61.96
2019-02-20T11:40:10.254Z,61.45
2019-02-20T11:41:10.223Z,61.45
2019-02-20T11:42:10.221Z,61.45
2019-02-20T11:43:10.226Z,61.15
2019-02-20T11:44:10.197Z,61.66
2019-02-20T11:45:10.207Z,60.94
2019-02-20T11:46:10.206Z,60.71
2019-02-20T11:47:10.175Z,60.91
2019-02-20T11:48:10.166Z,60.71
2019-02-20T11:49:10.136Z,60.71
2019-02-20T11:50:10.220Z,60.94
2019-02-20T11:51:10.114Z,61.15
2019-02-20T11:52:10.128Z,61.66
2019-02-20T11:53:10.105Z,60.91
2019-02-20T11:54:10.115Z,61.45
2019-02-20T11:55:10.075Z,61.25
2019-02-20T11:56:10.110Z,61.66
2019-02-20T11:57:10.088Z,62.37
2019-02-20T11:58:10.045Z,61.55
2019-02-20T11:59:10.034Z,61.35
2019-02-20T12:00:10.098Z,61.55
2019-02-20T12:01:10.034Z,61.32
2019-02-20T12:02:10.096Z,61.76
2019-02-20T12:03:10.054Z,62.07
2019-02-20T12:04:09.967Z,61.96
2019-02-20T12:05:09.962Z,62.37
2019-02-20T12:06:09.948Z,61.76
2019-02-20T12:07:09.944Z,62.07
2019-02-20T12:08:09.964Z,62.17
2019-02-20T12:09:09.935Z,61.93
2019-02-20T12:10:09.959Z,61.45
2019-02-20T12:11:09.907Z,62.07
2019-02-20T12:12:09.905Z,61.96
2019-02-20T12:13:09.912Z,62.30
2019-02-20T12:14:09.887Z,62.17
2019-02-20T12:15:09.854Z,62.48
2019-02-20T12:16:09.843Z,62.58
2019-02-20T12:17:09.962Z,62.78
2019-02-20T12:18:17.237Z,62.27
2019-02-20T12:19:10.820Z,61.76
2019-02-20T12:20:09.821Z,61.76
2019-02-20T12:21:09.789Z,62.17
2019-02-20T12:22:09.819Z,62.07
2019-02-20T12:23:09.792Z,61.35
2019-02-20T12:24:09.790Z,61.35
2019-02-20T12:25:09.766Z,61.55
2019-02-20T12:26:09.744Z,61.32
2019-02-20T12:27:09.729Z,60.91
2019-02-20T12:28:09.769Z,60.27
2019-02-20T12:29:11.205Z,60.58
2019-02-20T12:30:09.690Z,60.40
2019-02-20T12:31:09.680Z,60.71
2019-02-20T12:32:09.704Z,59.99
2019-02-20T12:33:09.654Z,60.19
2019-02-20T12:34:09.707Z,60.71
2019-02-20T12:35:09.647Z,61.01
2019-02-20T12:36:09.685Z,60.53
2019-02-20T12:37:09.616Z,60.94
2019-02-20T12:38:09.602Z,60.63
2019-02-20T12:39:09.599Z,60.91
2019-02-20T12:40:09.638Z,60.60
2019-02-20T12:41:10.902Z,61.11
2019-02-20T12:42:09.561Z,61.01
2019-02-20T12:43:09.621Z,60.81
2019-02-20T12:44:09.542Z,60.81
2019-02-20T12:45:09.546Z,60.84
2019-02-20T12:46:09.518Z,60.81
2019-02-20T12:47:09.546Z,61.25
2019-02-20T12:48:09.500Z,61.01
2019-02-20T12:49:09.492Z,60.81
2019-02-20T12:50:09.495Z,60.81
2019-02-20T12:51:09.464Z,60.91
2019-02-20T12:52:09.441Z,60.91